Time;durP1;ratioP1;P1;durP2;ratioP2;P2;SDS_P1;SDS_P2;PMS_P1;PMS_P2;Temp;Humidity;BMP_temperature;BMP_pressure;BME280_temperature;BME280_humidity;BME280_pressure;Samples;Min_cycle;Max_cycle;Signal;HPM_P1;HPM_P2
2022/11/10 00:01:03;;;;;;;21.42;11.53;;;;;;;;;;1767367;80;21015;-67
2022/11/10 00:03:48;;;;;;;21.00;11.83;;;;;;;;;;1778098;80;21087;-66
2022/11/10 00:06:33;;;;;;;22.17;11.45;;;;;;;;;;1773301;80;21036;-66
2022/11/10 00:09:17;;;;;;;16.95;10.00;;;;;;;;;;1758172;80;21080;-66
2022/11/10 00:12:02;;;;;;;21.02;11.10;;;;;;;;;;1775546;80;21059;-65
2022/11/10 00:17:50;;;;;;;21.87;12.00;;;;;;;;;;1770342;80;21088;-65
2022/11/10 00:20:34;;;;;;;20.85;11.33;;;;;;;;;;1774608;79;21055;-66
2022/11/10 00:23:19;;;;;;;23.32;11.40;;;;;;;;;;1786653;80;21051;-66
2022/11/10 00:26:04;;;;;;;18.10;11.08;;;;;;;;;;1785185;80;21043;-67
2022/11/10 00:28:48;;;;;;;23.70;11.63;;;;;;;;;;1775481;80;21044;-65
2022/11/10 00:31:33;;;;;;;22.40;11.38;;;;;;;;;;1770870;80;21484;-66
2022/11/10 00:34:18;;;;;;;21.07;10.72;;;;;;;;;;1760330;80;20968;-66
2022/11/10 00:37:03;;;;;;;20.37;11.20;;;;;;;;;;1776205;80;21071;-65
2022/11/10 00:39:48;;;;;;;19.75;10.90;;;;;;;;;;1770941;80;21020;-65
2022/11/10 00:42:32;;;;;;;21.15;10.63;;;;;;;;;;1782492;80;21487;-66
2022/11/10 00:45:17;;;;;;;22.00;11.70;;;;;;;;;;1778027;80;20996;-65
2022/11/10 00:48:02;;;;;;;18.87;10.68;;;;;;;;;;1778437;80;20981;-66
2022/11/10 00:50:48;;;;;;;19.92;9.80;;;;;;;;;;1783991;80;20992;-66
2022/11/10 00:53:32;;;;;;;17.55;9.33;;;;;;;;;;1762592;80;21023;-64
2022/11/10 00:56:17;;;;;;;18.15;10.58;;;;;;;;;;1769470;80;21499;-64
2022/11/10 00:59:02;;;;;;;22.67;12.00;;;;;;;;;;1761998;80;21570;-63
2022/11/10 01:01:48;;;;;;;16.17;9.95;;;;;;;;;;1767075;80;21043;-64
2022/11/10 01:04:33;;;;;;;22.70;11.05;;;;;;;;;;1768679;80;20973;-64
2022/11/10 01:07:19;;;;;;;21.62;10.80;;;;;;;;;;1772777;80;21039;-64
2022/11/10 01:10:05;;;;;;;21.68;11.15;;;;;;;;;;1765189;80;21063;-65
2022/11/10 01:12:50;;;;;;;21.02;10.48;;;;;;;;;;1772428;80;21067;-64
2022/11/10 01:15:39;;;;;;;17.17;10.48;;;;;;;;;;1773412;80;21000;-65
2022/11/10 01:18:23;;;;;;;19.17;10.10;;;;;;;;;;1755041;81;21185;-65
2022/11/10 01:21:08;;;;;;;20.02;9.80;;;;;;;;;;1763688;80;21004;-63
2022/11/10 01:23:53;;;;;;;21.30;10.75;;;;;;;;;;1763347;80;21031;-65
2022/11/10 01:26:39;;;;;;;20.70;11.12;;;;;;;;;;1744795;81;22048;-64
2022/11/10 01:29:24;;;;;;;18.02;10.50;;;;;;;;;;1761836;80;21035;-65
2022/11/10 01:32:08;;;;;;;19.42;10.28;;;;;;;;;;1779821;80;21011;-65
2022/11/10 01:34:53;;;;;;;20.23;10.58;;;;;;;;;;1778650;80;21546;-65
2022/11/10 01:37:39;;;;;;;16.62;9.18;;;;;;;;;;1765557;80;21071;-64
2022/11/10 01:40:24;;;;;;;17.50;9.38;;;;;;;;;;1784925;80;21039;-64
2022/11/10 01:43:10;;;;;;;15.70;8.88;;;;;;;;;;1761435;80;21020;-66
2022/11/10 01:46:03;;;;;;;19.17;10.00;;;;;;;;;;1780056;80;21039;-63
2022/11/10 01:48:55;;;;;;;20.72;10.82;;;;;;;;;;1751985;80;21040;-64
2022/11/10 01:51:41;;;;;;;20.92;10.32;;;;;;;;;;1770147;80;21015;-65
2022/11/10 01:54:27;;;;;;;15.43;9.30;;;;;;;;;;1759505;80;21583;-65
2022/11/10 01:57:12;;;;;;;17.75;9.93;;;;;;;;;;1754492;80;21079;-65
2022/11/10 01:59:56;;;;;;;17.65;9.48;;;;;;;;;;1760334;80;21020;-65
2022/11/10 02:05:37;;;;;;;20.52;10.18;;;;;;;;;;1685095;78;21194;-66
2022/11/10 02:08:22;;;;;;;22.65;9.53;;;;;;;;;;1657231;85;21045;-66
2022/11/10 02:11:07;;;;;;;15.35;8.90;;;;;;;;;;1659897;84;21646;-66
2022/11/10 02:13:51;;;;;;;17.12;8.60;;;;;;;;;;1683692;84;21053;-66
2022/11/10 02:16:36;;;;;;;18.92;9.33;;;;;;;;;;1676329;84;21061;-66
2022/11/10 02:19:22;;;;;;;16.97;9.30;;;;;;;;;;1675478;84;21120;-66
2022/11/10 02:22:07;;;;;;;16.87;9.50;;;;;;;;;;1716371;82;21059;-66
2022/11/10 02:24:52;;;;;;;17.32;9.48;;;;;;;;;;1684549;83;21129;-66
2022/11/10 02:27:36;;;;;;;17.57;9.43;;;;;;;;;;1638724;85;21078;-66
2022/11/10 02:30:21;;;;;;;18.75;10.23;;;;;;;;;;1675754;82;21059;-66
2022/11/10 02:33:06;;;;;;;18.92;10.45;;;;;;;;;;1666137;85;21038;-66
2022/11/10 02:35:50;;;;;;;18.32;9.85;;;;;;;;;;1716463;83;21063;-66
2022/11/10 02:38:35;;;;;;;16.93;8.95;;;;;;;;;;1720231;82;21569;-65
2022/11/10 02:41:20;;;;;;;13.78;8.63;;;;;;;;;;1699165;83;21073;-65
2022/11/10 02:44:06;;;;;;;16.90;9.73;;;;;;;;;;1699900;82;21074;-65
2022/11/10 02:46:50;;;;;;;18.27;9.73;;;;;;;;;;1705689;83;21530;-65
2022/11/10 02:49:36;;;;;;;17.95;8.90;;;;;;;;;;1709787;82;21581;-64
2022/11/10 02:52:21;;;;;;;20.72;10.15;;;;;;;;;;1671156;83;21071;-65
2022/11/10 02:55:06;;;;;;;18.52;10.05;;;;;;;;;;1686657;83;21088;-65
2022/11/10 02:57:52;;;;;;;17.62;9.70;;;;;;;;;;1712041;82;21112;-65
2022/11/10 03:00:36;;;;;;;16.20;9.08;;;;;;;;;;1696023;83;21058;-65
2022/11/10 03:03:21;;;;;;;16.25;9.10;;;;;;;;;;1703509;81;21104;-66
2022/11/10 03:06:06;;;;;;;18.32;9.28;;;;;;;;;;1694762;83;21032;-66
2022/11/10 03:08:51;;;;;;;18.10;8.93;;;;;;;;;;1675752;83;21061;-66
2022/11/10 03:11:36;;;;;;;15.13;8.85;;;;;;;;;;1674164;83;21133;-66
2022/11/10 03:14:20;;;;;;;14.53;8.75;;;;;;;;;;1703691;83;21039;-66
2022/11/10 03:17:05;;;;;;;18.17;9.65;;;;;;;;;;1706979;82;21102;-66
2022/11/10 03:19:50;;;;;;;18.62;9.48;;;;;;;;;;1704325;83;21071;-67
2022/11/10 03:22:34;;;;;;;14.73;8.83;;;;;;;;;;1712376;83;21074;-66
2022/11/10 03:25:19;;;;;;;15.80;8.50;;;;;;;;;;1703917;81;21500;-66
2022/11/10 03:28:04;;;;;;;18.70;9.73;;;;;;;;;;1705011;82;21027;-65
2022/11/10 03:30:49;;;;;;;20.17;8.93;;;;;;;;;;1691228;83;21078;-66
2022/11/10 03:33:35;;;;;;;14.95;9.00;;;;;;;;;;1692968;83;21060;-67
2022/11/10 03:36:20;;;;;;;14.55;8.60;;;;;;;;;;1685938;82;21048;-67
2022/11/10 03:39:05;;;;;;;16.35;10.05;;;;;;;;;;1710643;82;21591;-66
2022/11/10 03:41:49;;;;;;;16.17;10.53;;;;;;;;;;1697449;83;21548;-67
2022/11/10 03:44:34;;;;;;;19.65;10.15;;;;;;;;;;1694599;83;21048;-66
2022/11/10 06:12:46;;;;;;;16.50;9.90;;;;;;;;;;1819475;77;22140;-66
2022/11/10 06:15:31;;;;;;;16.57;9.53;;;;;;;;;;1792619;80;21082;-65
2022/11/10 06:18:16;;;;;;;15.60;8.70;;;;;;;;;;1792787;80;21051;-65
2022/11/10 06:21:02;;;;;;;14.83;8.78;;;;;;;;;;1791724;78;21036;-65
2022/11/10 06:23:46;;;;;;;17.77;9.25;;;;;;;;;;1797222;79;21461;-65
2022/11/10 06:26:31;;;;;;;19.57;9.38;;;;;;;;;;1782340;79;21567;-65
2022/11/10 06:29:16;;;;;;;17.27;9.15;;;;;;;;;;1794094;79;21048;-65
2022/11/10 06:32:00;;;;;;;16.70;9.33;;;;;;;;;;1789820;78;21017;-65
2022/11/10 06:34:45;;;;;;;14.68;7.47;;;;;;;;;;1794560;79;21683;-65
2022/11/10 06:37:29;;;;;;;15.55;9.10;;;;;;;;;;1785374;79;21052;-66
2022/11/10 06:40:14;;;;;;;13.90;8.18;;;;;;;;;;1785058;79;21571;-66
2022/11/10 06:42:59;;;;;;;13.93;8.03;;;;;;;;;;1782154;79;20965;-66
2022/11/10 06:45:44;;;;;;;13.85;7.87;;;;;;;;;;1784894;78;21075;-67
2022/11/10 06:48:30;;;;;;;15.48;9.10;;;;;;;;;;1785214;78;21076;-65
2022/11/10 06:51:14;;;;;;;16.12;8.88;;;;;;;;;;1800725;79;21009;-66
2022/11/10 06:53:58;;;;;;;16.42;8.78;;;;;;;;;;1791049;78;20998;-66
2022/11/10 06:56:43;;;;;;;15.60;8.45;;;;;;;;;;1786136;79;21028;-66
2022/11/10 06:59:28;;;;;;;17.77;8.65;;;;;;;;;;1774926;78;21044;-66
2022/11/10 07:02:13;;;;;;;16.17;8.95;;;;;;;;;;1764500;79;21111;-66
2022/11/10 07:04:59;;;;;;;14.83;9.23;;;;;;;;;;1774013;79;21574;-66
2022/11/10 07:07:44;;;;;;;13.60;8.03;;;;;;;;;;1791912;79;21021;-66
2022/11/10 07:10:30;;;;;;;15.93;8.68;;;;;;;;;;1795298;79;21029;-65
2022/11/10 07:13:17;;;;;;;15.78;8.33;;;;;;;;;;1801489;79;21086;-66
2022/11/10 07:16:03;;;;;;;15.40;8.63;;;;;;;;;;1787362;80;21031;-66
2022/11/10 07:18:48;;;;;;;18.23;9.30;;;;;;;;;;1783510;79;21004;-67
2022/11/10 07:21:33;;;;;;;15.80;8.38;;;;;;;;;;1778439;80;21032;-66
2022/11/10 07:24:18;;;;;;;17.60;9.40;;;;;;;;;;1784133;79;21048;-67
2022/11/10 07:27:02;;;;;;;15.13;8.78;;;;;;;;;;1780203;80;20993;-67
2022/11/10 07:29:47;;;;;;;15.13;7.72;;;;;;;;;;1796165;79;21005;-66
2022/11/10 07:32:32;;;;;;;16.73;7.75;;;;;;;;;;1800787;79;21056;-66
2022/11/10 07:35:16;;;;;;;20.40;9.05;;;;;;;;;;1781916;79;21037;-70
2022/11/10 07:38:11;;;;;;;14.83;8.08;;;;;;;;;;1768594;80;21060;-67
2022/11/10 07:40:55;;;;;;;15.05;8.78;;;;;;;;;;1782626;80;21076;-68
2022/11/10 07:43:41;;;;;;;15.68;7.85;;;;;;;;;;1791319;79;21005;-66
2022/11/10 07:46:25;;;;;;;17.40;9.08;;;;;;;;;;1795202;78;21040;-66
2022/11/10 07:49:10;;;;;;;15.15;8.38;;;;;;;;;;1794070;79;21562;-66
2022/11/10 07:51:55;;;;;;;13.05;8.03;;;;;;;;;;1791888;79;21064;-67
2022/11/10 07:54:39;;;;;;;13.22;7.92;;;;;;;;;;1791114;80;21052;-66
2022/11/10 07:57:24;;;;;;;14.05;7.87;;;;;;;;;;1775970;78;21052;-66
2022/11/10 08:00:11;;;;;;;13.53;7.55;;;;;;;;;;1780015;79;21472;-68
2022/11/10 08:03:03;;;;;;;16.27;9.58;;;;;;;;;;1784541;79;21667;-67
2022/11/10 08:05:48;;;;;;;15.63;8.60;;;;;;;;;;1793213;79;21539;-66
2022/11/10 08:08:32;;;;;;;15.30;8.93;;;;;;;;;;1732442;81;21495;-67
2022/11/10 08:11:18;;;;;;;15.05;7.92;;;;;;;;;;1746078;81;21064;-67
2022/11/10 08:14:03;;;;;;;17.05;8.98;;;;;;;;;;1749203;81;21056;-67
2022/11/10 08:16:49;;;;;;;13.22;7.80;;;;;;;;;;1752105;81;21087;-68
2022/11/10 08:19:35;;;;;;;13.00;7.58;;;;;;;;;;1749519;81;21068;-67
2022/11/10 08:22:20;;;;;;;15.45;9.18;;;;;;;;;;1743093;81;21001;-67
2022/11/10 08:25:05;;;;;;;14.10;8.98;;;;;;;;;;1748123;82;21472;-67
2022/11/10 08:27:52;;;;;;;13.08;8.13;;;;;;;;;;1753458;81;21614;-67
2022/11/10 08:30:36;;;;;;;20.90;9.85;;;;;;;;;;1742775;81;21497;-67
2022/11/10 08:33:20;;;;;;;16.70;9.70;;;;;;;;;;1750256;81;21001;-68
2022/11/10 08:36:05;;;;;;;13.10;7.53;;;;;;;;;;1753607;81;22077;-67
2022/11/10 08:38:50;;;;;;;17.70;8.93;;;;;;;;;;1755080;82;21533;-67
2022/11/10 08:41:35;;;;;;;16.02;9.10;;;;;;;;;;1746503;80;21048;-69
2022/11/10 08:44:19;;;;;;;12.68;7.25;;;;;;;;;;1744490;81;21115;-66
2022/11/10 08:47:04;;;;;;;15.58;9.60;;;;;;;;;;1746429;82;21079;-67
2022/11/10 08:49:49;;;;;;;13.88;7.92;;;;;;;;;;1746858;82;21048;-66
2022/11/10 08:52:34;;;;;;;12.13;7.55;;;;;;;;;;1750440;81;21048;-66
2022/11/10 08:55:21;;;;;;;13.70;7.97;;;;;;;;;;1766961;80;21177;-66
2022/11/10 08:58:06;;;;;;;13.70;8.43;;;;;;;;;;1746254;80;21508;-68
2022/11/10 09:00:51;;;;;;;17.25;9.73;;;;;;;;;;1726242;82;21104;-68
2022/11/10 09:03:36;;;;;;;18.05;9.63;;;;;;;;;;1734152;80;21095;-68
2022/11/10 09:06:21;;;;;;;20.10;10.00;;;;;;;;;;1735402;82;21017;-67
2022/11/10 09:09:06;;;;;;;16.35;9.55;;;;;;;;;;1767293;80;21076;-67
2022/11/10 09:11:51;;;;;;;17.62;9.43;;;;;;;;;;1760514;80;21048;-66
2022/11/10 09:14:37;;;;;;;14.98;8.30;;;;;;;;;;1774264;80;21570;-67
2022/11/10 09:17:23;;;;;;;15.98;8.33;;;;;;;;;;1783072;80;21106;-68
2022/11/10 09:20:11;;;;;;;17.70;8.75;;;;;;;;;;1771386;79;21607;-68
2022/11/10 09:22:57;;;;;;;13.38;8.33;;;;;;;;;;1775360;81;21080;-68
2022/11/10 09:25:45;;;;;;;16.93;9.60;;;;;;;;;;1765666;79;21022;-68
2022/11/10 09:28:29;;;;;;;19.40;9.70;;;;;;;;;;1773782;79;21635;-67
2022/11/10 09:31:14;;;;;;;13.43;7.92;;;;;;;;;;1768684;80;21058;-68
2022/11/10 09:33:58;;;;;;;19.40;9.98;;;;;;;;;;1775995;80;21036;-67
2022/11/10 09:36:45;;;;;;;15.23;8.18;;;;;;;;;;1770981;79;21036;-67
2022/11/10 09:39:29;;;;;;;15.25;8.43;;;;;;;;;;1779242;80;21022;-66
2022/11/10 09:42:28;;;;;;;15.08;8.30;;;;;;;;;;1794526;80;21505;-66
2022/11/10 09:45:24;;;;;;;15.00;8.63;;;;;;;;;;1788350;79;21615;-66
2022/11/10 09:48:14;;;;;;;15.88;8.90;;;;;;;;;;1770115;80;21045;-65
2022/11/10 09:51:03;;;;;;;14.18;8.50;;;;;;;;;;1781409;80;21054;-66
2022/11/10 09:53:51;;;;;;;17.95;9.48;;;;;;;;;;1777745;80;21000;-68
2022/11/10 09:56:35;;;;;;;15.85;8.73;;;;;;;;;;1764082;79;21564;-67
2022/11/10 09:59:27;;;;;;;15.85;8.43;;;;;;;;;;1770323;81;21031;-68
2022/11/10 10:02:19;;;;;;;19.15;9.00;;;;;;;;;;1770667;79;21084;-67
2022/11/10 10:05:22;;;;;;;19.50;10.13;;;;;;;;;;1768301;81;21548;-67
2022/11/10 10:08:08;;;;;;;17.17;9.58;;;;;;;;;;1779225;80;21535;-69
2022/11/10 10:11:07;;;;;;;17.32;8.63;;;;;;;;;;1799419;80;22145;-69
2022/11/10 10:13:56;;;;;;;17.80;8.85;;;;;;;;;;1802333;79;21559;-69
2022/11/10 10:16:52;;;;;;;17.65;9.45;;;;;;;;;;1765657;79;21615;-68
2022/11/10 10:19:42;;;;;;;17.95;8.55;;;;;;;;;;1711472;82;21025;-68
2022/11/10 10:22:31;;;;;;;16.00;8.00;;;;;;;;;;1759037;80;20993;-69
2022/11/10 10:25:21;;;;;;;17.42;9.03;;;;;;;;;;1780936;79;21512;-67
2022/11/10 10:28:17;;;;;;;16.75;9.55;;;;;;;;;;1784214;80;20992;-68
2022/11/10 10:31:08;;;;;;;16.67;8.88;;;;;;;;;;1781602;80;21045;-67
2022/11/10 10:33:52;;;;;;;19.15;10.00;;;;;;;;;;1778177;79;22254;-67
2022/11/10 10:36:40;;;;;;;16.70;9.28;;;;;;;;;;1775802;80;21072;-67
2022/11/10 10:39:35;;;;;;;19.27;9.60;;;;;;;;;;1776993;79;21276;-68
2022/11/10 10:42:29;;;;;;;22.32;10.15;;;;;;;;;;1781938;80;21578;-64
2022/11/10 10:45:20;;;;;;;19.90;10.00;;;;;;;;;;1776292;80;21052;-67
2022/11/10 10:48:05;;;;;;;19.00;9.38;;;;;;;;;;1779893;80;21021;-67
2022/11/10 10:50:50;;;;;;;16.37;9.15;;;;;;;;;;1748176;80;21000;-68
2022/11/10 10:53:45;;;;;;;18.07;9.40;;;;;;;;;;1769620;80;21011;-68
2022/11/10 10:56:32;;;;;;;20.80;9.85;;;;;;;;;;1778552;80;21493;-68
2022/11/10 10:59:20;;;;;;;16.65;9.08;;;;;;;;;;1784948;79;21106;-68
2022/11/10 11:02:06;;;;;;;18.05;8.68;;;;;;;;;;1783103;79;21064;-66
2022/11/10 11:04:52;;;;;;;15.60;8.35;;;;;;;;;;1782975;80;21041;-69
2022/11/10 11:07:37;;;;;;;17.65;8.20;;;;;;;;;;1784288;79;21094;-66
2022/11/10 11:10:23;;;;;;;18.10;9.13;;;;;;;;;;1780814;80;21571;-66
2022/11/10 11:13:15;;;;;;;12.85;7.90;;;;;;;;;;1779142;80;21041;-67
2022/11/10 11:16:01;;;;;;;19.27;9.88;;;;;;;;;;1754753;80;21053;-67
2022/11/10 11:18:46;;;;;;;15.70;7.97;;;;;;;;;;1790766;79;21026;-67
2022/11/10 11:21:33;;;;;;;16.23;8.30;;;;;;;;;;1790348;79;20992;-66
2022/11/10 11:24:19;;;;;;;17.42;8.70;;;;;;;;;;1774270;80;21025;-67
2022/11/10 11:27:05;;;;;;;15.85;8.15;;;;;;;;;;1780376;79;21358;-67
2022/11/10 11:30:04;;;;;;;12.75;7.03;;;;;;;;;;1722700;82;21097;-68
2022/11/10 11:32:54;;;;;;;15.85;8.68;;;;;;;;;;1759364;80;21093;-67
2022/11/10 11:35:40;;;;;;;18.98;8.15;;;;;;;;;;1758046;80;21552;-67
2022/11/10 11:38:30;;;;;;;16.30;8.85;;;;;;;;;;1780869;79;21037;-66
2022/11/10 11:41:19;;;;;;;20.08;10.05;;;;;;;;;;1795610;80;21053;-67
2022/11/10 11:44:05;;;;;;;19.32;8.30;;;;;;;;;;1798207;79;21140;-66
2022/11/10 11:47:10;;;;;;;18.73;10.05;;;;;;;;;;1782053;80;21064;-66
2022/11/10 11:49:59;;;;;;;14.10;7.83;;;;;;;;;;1745634;81;21513;-67
2022/11/10 11:53:04;;;;;;;17.92;9.58;;;;;;;;;;1731349;80;21029;-70
2022/11/10 11:55:53;;;;;;;16.75;9.15;;;;;;;;;;1773251;79;21033;-67
2022/11/10 11:58:57;;;;;;;18.62;9.13;;;;;;;;;;1759562;80;21013;-69
2022/11/10 12:01:56;;;;;;;19.52;9.73;;;;;;;;;;1780314;80;21081;-67
2022/11/10 12:04:45;;;;;;;16.82;8.78;;;;;;;;;;1780137;79;21039;-67
2022/11/10 12:07:34;;;;;;;21.00;9.10;;;;;;;;;;1788265;80;21022;-68
2022/11/10 12:10:37;;;;;;;19.45;10.10;;;;;;;;;;1792944;80;21017;-67
2022/11/10 12:13:26;;;;;;;17.73;9.55;;;;;;;;;;1751880;81;21033;-67
2022/11/10 12:16:13;;;;;;;16.12;8.78;;;;;;;;;;1787047;78;21033;-67
2022/11/10 12:19:05;;;;;;;16.20;8.75;;;;;;;;;;1791006;80;21000;-67
2022/11/10 12:22:03;;;;;;;16.05;10.18;;;;;;;;;;1795120;79;22154;-68
2022/11/10 12:24:53;;;;;;;16.62;8.95;;;;;;;;;;1750786;79;21052;-67
2022/11/10 12:27:39;;;;;;;17.40;8.98;;;;;;;;;;1791449;80;21020;-68
2022/11/10 12:30:23;;;;;;;17.35;9.28;;;;;;;;;;1791155;80;21000;-68
2022/11/10 12:33:16;;;;;;;16.48;8.28;;;;;;;;;;1787387;80;21133;-66
2022/11/10 12:36:01;;;;;;;14.30;8.00;;;;;;;;;;1790491;80;21062;-67
2022/11/10 12:38:56;;;;;;;15.53;7.47;;;;;;;;;;1791329;79;21002;-66
2022/11/10 12:41:42;;;;;;;15.30;8.10;;;;;;;;;;1779964;79;21000;-68
2022/11/10 12:44:38;;;;;;;12.37;7.15;;;;;;;;;;1789020;78;21037;-66
2022/11/10 12:47:25;;;;;;;11.57;6.90;;;;;;;;;;1789002;80;21598;-66
2022/11/10 12:50:20;;;;;;;13.93;7.40;;;;;;;;;;1784701;80;21011;-68
2022/11/10 12:53:10;;;;;;;14.47;7.92;;;;;;;;;;1786652;79;21036;-68
2022/11/10 12:55:56;;;;;;;16.00;7.53;;;;;;;;;;1786146;80;21005;-66
2022/11/10 12:58:42;;;;;;;12.45;7.62;;;;;;;;;;1788245;79;21009;-67
2022/11/10 13:01:27;;;;;;;15.38;7.28;;;;;;;;;;1771137;80;21016;-67
2022/11/10 13:04:12;;;;;;;12.88;6.78;;;;;;;;;;1789076;79;21028;-67
2022/11/10 13:07:03;;;;;;;15.65;8.23;;;;;;;;;;1792160;79;20966;-67
2022/11/10 13:09:48;;;;;;;14.65;7.55;;;;;;;;;;1783602;79;21025;-65
2022/11/10 13:12:32;;;;;;;14.18;7.10;;;;;;;;;;1779799;79;21020;-66
2022/11/10 13:15:38;;;;;;;15.32;8.43;;;;;;;;;;1777382;80;20989;-67
2022/11/10 13:18:32;;;;;;;15.63;7.42;;;;;;;;;;1768535;79;21576;-68
2022/11/10 13:21:16;;;;;;;12.73;7.58;;;;;;;;;;1775528;80;20992;-66
2022/11/10 13:24:04;;;;;;;17.00;9.15;;;;;;;;;;1777663;80;21049;-67
2022/11/10 13:26:54;;;;;;;18.87;9.28;;;;;;;;;;1779204;80;21033;-66
2022/11/10 13:29:44;;;;;;;16.57;9.03;;;;;;;;;;1776120;79;20962;-65
2022/11/10 13:32:31;;;;;;;19.30;9.03;;;;;;;;;;1775631;80;20974;-67
2022/11/10 13:35:17;;;;;;;13.98;7.25;;;;;;;;;;1780801;80;21021;-67
2022/11/10 13:38:02;;;;;;;14.28;7.22;;;;;;;;;;1760204;81;21024;-67
2022/11/10 13:40:46;;;;;;;15.03;8.25;;;;;;;;;;1775115;80;21509;-65
2022/11/10 13:43:31;;;;;;;16.32;8.98;;;;;;;;;;1771475;80;21113;-66
2022/11/10 13:46:15;;;;;;;15.53;8.25;;;;;;;;;;1770577;80;21027;-68
2022/11/10 13:49:05;;;;;;;18.02;9.45;;;;;;;;;;1754218;80;21358;-67
2022/11/10 13:51:52;;;;;;;17.30;8.28;;;;;;;;;;1781293;80;21512;-67
2022/11/10 13:54:42;;;;;;;14.10;8.03;;;;;;;;;;1772784;80;20988;-67
2022/11/10 13:57:28;;;;;;;13.18;8.05;;;;;;;;;;1771605;79;21063;-67
2022/11/10 14:00:17;;;;;;;17.20;8.55;;;;;;;;;;1771351;79;21039;-64
2022/11/10 14:03:04;;;;;;;17.42;8.00;;;;;;;;;;1778248;80;21116;-65
2022/11/10 14:05:56;;;;;;;21.40;11.10;;;;;;;;;;1771043;80;21014;-67
2022/11/10 14:08:44;;;;;;;18.27;9.20;;;;;;;;;;1773879;79;21566;-65
2022/11/10 14:11:31;;;;;;;18.10;10.03;;;;;;;;;;1773498;80;21072;-66
2022/11/10 14:14:17;;;;;;;18.17;8.65;;;;;;;;;;1746800;80;21025;-66
2022/11/10 14:17:01;;;;;;;16.75;9.13;;;;;;;;;;1738983;80;21068;-65
2022/11/10 14:19:46;;;;;;;17.95;9.28;;;;;;;;;;1741233;80;21009;-65
2022/11/10 14:22:41;;;;;;;22.52;10.90;;;;;;;;;;1741356;80;21631;-66
2022/11/10 14:25:35;;;;;;;19.98;10.85;;;;;;;;;;1736967;80;22094;-66
2022/11/10 14:28:24;;;;;;;22.65;11.78;;;;;;;;;;1741562;80;21035;-66
2022/11/10 14:31:15;;;;;;;17.77;9.90;;;;;;;;;;1740076;80;21053;-66
2022/11/10 14:34:00;;;;;;;18.27;9.65;;;;;;;;;;1732891;80;20989;-64
2022/11/10 14:36:58;;;;;;;20.75;10.10;;;;;;;;;;1724791;80;21099;-67
2022/11/10 14:39:42;;;;;;;21.87;10.03;;;;;;;;;;1728947;81;20994;-66
2022/11/10 14:42:28;;;;;;;19.20;9.70;;;;;;;;;;1730981;83;21052;-69
2022/11/10 14:45:23;;;;;;;19.82;10.35;;;;;;;;;;1730080;83;21061;-68
2022/11/10 14:48:09;;;;;;;20.70;10.50;;;;;;;;;;1724646;81;20997;-67
2022/11/10 14:50:53;;;;;;;18.40;9.75;;;;;;;;;;1729996;83;21064;-68
2022/11/10 14:53:38;;;;;;;19.02;9.80;;;;;;;;;;1729757;83;21552;-67
2022/11/10 14:56:24;;;;;;;20.30;9.20;;;;;;;;;;1728700;83;21076;-67
2022/11/10 14:59:10;;;;;;;17.00;9.58;;;;;;;;;;1722710;83;21140;-67
2022/11/10 15:01:55;;;;;;;20.02;10.13;;;;;;;;;;1727604;83;21045;-66
2022/11/10 15:04:39;;;;;;;15.63;9.30;;;;;;;;;;1723255;81;21037;-69
2022/11/10 15:07:24;;;;;;;21.20;10.18;;;;;;;;;;1731188;83;21032;-69
2022/11/10 15:10:11;;;;;;;20.90;10.53;;;;;;;;;;1729266;83;21010;-68
2022/11/10 15:13:06;;;;;;;21.45;11.33;;;;;;;;;;1729285;82;21029;-65
2022/11/10 15:15:52;;;;;;;21.95;11.97;;;;;;;;;;1775488;80;22457;-68
2022/11/10 15:18:38;;;;;;;18.50;10.23;;;;;;;;;;1745615;80;21057;-67
2022/11/10 15:21:27;;;;;;;19.23;9.75;;;;;;;;;;1714688;83;21060;-66
2022/11/10 15:24:11;;;;;;;16.32;10.03;;;;;;;;;;1706228;83;21096;-67
2022/11/10 15:26:58;;;;;;;17.85;10.03;;;;;;;;;;1717154;82;21662;-67
2022/11/10 15:29:43;;;;;;;18.30;10.28;;;;;;;;;;1739099;80;21068;-66
2022/11/10 15:32:30;;;;;;;20.48;11.15;;;;;;;;;;1745545;80;21048;-67
2022/11/10 15:35:17;;;;;;;21.33;10.93;;;;;;;;;;1707422;82;21557;-68
2022/11/10 15:38:05;;;;;;;19.25;9.90;;;;;;;;;;1715005;83;21519;-67
2022/11/10 15:40:50;;;;;;;23.05;11.97;;;;;;;;;;1737103;82;21073;-67
2022/11/10 15:43:35;;;;;;;23.10;11.53;;;;;;;;;;1700891;84;21084;-67
2022/11/10 15:46:20;;;;;;;19.95;11.48;;;;;;;;;;1716855;82;21029;-66
2022/11/10 15:49:06;;;;;;;22.77;11.45;;;;;;;;;;1711973;82;21061;-66
2022/11/10 15:51:51;;;;;;;24.00;12.15;;;;;;;;;;1694492;84;21553;-66
2022/11/10 15:54:36;;;;;;;22.40;11.00;;;;;;;;;;1708587;83;21087;-66
2022/11/10 15:57:22;;;;;;;19.62;10.53;;;;;;;;;;1705706;83;21587;-68
2022/11/10 16:00:09;;;;;;;23.42;11.60;;;;;;;;;;1715259;82;21052;-66
2022/11/10 16:02:54;;;;;;;21.00;10.25;;;;;;;;;;1708847;82;21565;-67
2022/11/10 16:05:39;;;;;;;21.12;11.12;;;;;;;;;;1712845;82;20993;-67
2022/11/10 16:08:25;;;;;;;17.12;10.35;;;;;;;;;;1716254;83;21722;-68
2022/11/10 16:11:11;;;;;;;20.37;10.90;;;;;;;;;;1714122;83;21107;-68
2022/11/10 16:13:56;;;;;;;17.75;10.20;;;;;;;;;;1717338;83;21034;-67
2022/11/10 16:16:42;;;;;;;19.48;10.48;;;;;;;;;;1778186;80;21666;-68
2022/11/10 16:19:27;;;;;;;22.13;10.00;;;;;;;;;;1775870;80;21541;-67
2022/11/10 16:22:12;;;;;;;22.35;10.65;;;;;;;;;;1771126;80;21067;-66
2022/11/10 16:24:56;;;;;;;24.40;11.00;;;;;;;;;;1780587;80;21070;-68
2022/11/10 16:27:41;;;;;;;21.93;10.40;;;;;;;;;;1774654;80;21057;-68
2022/11/10 16:30:25;;;;;;;23.55;11.33;;;;;;;;;;1774110;80;21026;-67
2022/11/10 16:33:13;;;;;;;20.95;10.82;;;;;;;;;;1775882;80;21621;-67
2022/11/10 16:35:57;;;;;;;19.10;10.48;;;;;;;;;;1776273;79;21029;-68
2022/11/10 16:38:43;;;;;;;23.55;10.88;;;;;;;;;;1783008;80;21086;-68
2022/11/10 16:41:28;;;;;;;20.20;10.75;;;;;;;;;;1784945;80;21020;-66
2022/11/10 16:44:14;;;;;;;22.58;11.80;;;;;;;;;;1781170;79;21016;-69
2022/11/10 16:46:59;;;;;;;21.97;11.20;;;;;;;;;;1778821;80;21006;-68
2022/11/10 16:49:45;;;;;;;25.10;11.83;;;;;;;;;;1758142;80;21028;-67
2022/11/10 16:52:30;;;;;;;20.60;10.85;;;;;;;;;;1783417;80;21029;-67
2022/11/10 16:55:15;;;;;;;21.10;10.98;;;;;;;;;;1778757;79;21386;-68
2022/11/10 16:58:00;;;;;;;19.57;10.53;;;;;;;;;;1779770;79;20993;-68
2022/11/10 17:00:46;;;;;;;21.70;9.95;;;;;;;;;;1777716;80;21147;-66
2022/11/10 17:03:34;;;;;;;18.55;9.25;;;;;;;;;;1776348;80;21069;-66
2022/11/10 17:06:20;;;;;;;18.27;9.90;;;;;;;;;;1778448;79;21484;-66
2022/11/10 17:09:12;;;;;;;15.72;8.88;;;;;;;;;;1775659;79;21495;-68
2022/11/10 17:11:57;;;;;;;17.92;11.18;;;;;;;;;;1780755;80;21020;-66
2022/11/10 17:14:42;;;;;;;20.65;10.23;;;;;;;;;;1772344;80;21556;-67
2022/11/10 17:17:26;;;;;;;21.25;10.72;;;;;;;;;;1775829;79;20978;-67
2022/11/10 17:20:22;;;;;;;20.37;10.60;;;;;;;;;;1772266;80;21026;-65
2022/11/10 17:23:09;;;;;;;19.10;10.70;;;;;;;;;;1771562;79;21040;-66
2022/11/10 17:25:53;;;;;;;17.50;9.98;;;;;;;;;;1776197;79;21028;-66
2022/11/10 17:28:38;;;;;;;22.32;12.37;;;;;;;;;;1773361;79;20988;-67
2022/11/10 17:31:25;;;;;;;25.75;13.13;;;;;;;;;;1774040;79;21029;-67
2022/11/10 17:34:09;;;;;;;19.57;10.55;;;;;;;;;;1771369;79;20997;-67
2022/11/10 17:36:54;;;;;;;19.20;11.15;;;;;;;;;;1774910;79;21033;-67
2022/11/10 17:39:39;;;;;;;20.50;10.90;;;;;;;;;;1775694;80;21016;-67
2022/11/10 17:42:24;;;;;;;18.60;10.15;;;;;;;;;;1768750;79;21037;-66
2022/11/10 17:45:11;;;;;;;19.17;10.58;;;;;;;;;;1771364;79;21009;-67
2022/11/10 18:00:30;;;;;;;23.52;12.43;;;;;;;;;;1798197;77;22162;-56
2022/11/10 18:03:19;;;;;;;18.73;10.65;;;;;;;;;;1767680;80;21032;-56
2022/11/10 18:06:05;;;;;;;22.67;10.20;;;;;;;;;;1778206;80;21583;-57
2022/11/10 18:08:49;;;;;;;18.87;11.03;;;;;;;;;;1779720;80;21024;-56
2022/11/10 18:11:34;;;;;;;20.52;11.73;;;;;;;;;;1779056;80;21028;-57
2022/11/10 18:14:19;;;;;;;21.17;11.28;;;;;;;;;;1774126;80;21009;-57
2022/11/10 18:17:03;;;;;;;20.70;11.35;;;;;;;;;;1761616;80;21029;-57
2022/11/10 18:19:49;;;;;;;18.02;10.00;;;;;;;;;;1761980;80;21558;-56
2022/11/10 18:22:34;;;;;;;19.77;11.55;;;;;;;;;;1767478;80;21076;-56
2022/11/10 18:25:18;;;;;;;20.55;11.80;;;;;;;;;;1771765;80;21631;-56
2022/11/10 18:28:03;;;;;;;18.32;10.35;;;;;;;;;;1768617;80;21076;-58
2022/11/10 18:30:48;;;;;;;19.70;10.50;;;;;;;;;;1787173;80;21535;-57
2022/11/10 18:33:33;;;;;;;19.87;10.50;;;;;;;;;;1778034;80;21487;-57
2022/11/10 18:36:18;;;;;;;24.00;12.20;;;;;;;;;;1770937;80;22085;-57
2022/11/10 18:39:03;;;;;;;21.90;10.28;;;;;;;;;;1772141;80;21543;-57
2022/11/10 18:41:47;;;;;;;20.57;11.10;;;;;;;;;;1772456;80;21582;-57
2022/11/10 18:44:35;;;;;;;17.62;10.43;;;;;;;;;;1774731;80;21044;-57
2022/11/10 18:47:19;;;;;;;23.50;12.40;;;;;;;;;;1778533;80;21552;-56
2022/11/10 18:50:05;;;;;;;24.27;13.03;;;;;;;;;;1748865;80;21100;-56
2022/11/10 18:52:50;;;;;;;18.20;10.08;;;;;;;;;;1753406;81;21039;-56
2022/11/10 18:55:35;;;;;;;22.27;11.55;;;;;;;;;;1752749;81;21559;-58
2022/11/10 18:58:19;;;;;;;23.85;12.18;;;;;;;;;;1741246;81;21017;-57
2022/11/10 19:01:05;;;;;;;21.45;11.10;;;;;;;;;;1752465;81;21031;-57
2022/11/10 19:03:49;;;;;;;24.60;12.93;;;;;;;;;;1751765;81;21084;-57